CheckWX is a tool to help pilots better visualize weather data.  It is not intended as a substitute for an official pre-flight weather briefing.

11:22:10 UTC

CYEN METAR
Estevan Airport
Estevan, Canada
Current

22 mins ago

CYEN 251100Z AUTO 29005KT 9SM OVC100 09/08 A3000 RMK SLP172
Observed
May-25 @ 11:00 UTC
Wind
  • 290° at 5 KTS
Visibility
Flight Rules
VFR
Cloud Levels
  • Overcast at 10,000' AGL
Temperature
C / 48°F
Dewpoint
C / 46°F
Humidity
94%
Altimeter
30" Hg
Pressure
1015.92 hPa
Previous

1 hour ago

CYEN 251000Z AUTO 27004KT 9SM OVC100 10/08 A2999 RMK SLP168
Observed
May-25 @ 10:00 UTC
Wind
  • 270° at 4 KTS
Visibility
Flight Rules
VFR
Cloud Levels
  • Overcast at 10,000' AGL
Temperature
10°C / 50°F
Dewpoint
C / 46°F
Humidity
88%
Altimeter
29.99" Hg
Pressure
1015.62 hPa
Previous

2 hours ago

CYEN 250900Z AUTO 29006KT 9SM OVC100 10/08 A2998 RMK SLP163
Observed
May-25 @ 09:00 UTC
Wind
  • 290° at 6 KTS
Visibility
Flight Rules
VFR
Cloud Levels
  • Overcast at 10,000' AGL
Temperature
10°C / 50°F
Dewpoint
C / 46°F
Humidity
88%
Altimeter
29.98" Hg
Pressure
1015.22 hPa